NCAR-RAP Real-Time Weather Data

Output produced by METARs form (06 May 2021  15:45 UTC)
found at http://weather.rap.ucar.edu/surface/
 
KCYS 061453Z 20014KT 10SM CLR 08/03 A3036 RMK AO2 SLP251 T00780028 58000
KCYS 061353Z 20010KT 10SM CLR 06/02 A3037 RMK AO2 SLP261 T00560017
KCYS 061253Z 23005KT 10SM CLR 01/M01 A3037 RMK AO2 SLP261 T00111006 $
KCYS 061153Z 27004KT 10SM CLR M01/M02 A3036 RMK AO2 SLP264 T10061017 10044 21006 56002 $
KCYS 061053Z AUTO 28005KT 10SM CLR M01/M02 A3036 RMK AO2 SLP271 T10061017 $
KCYS 060953Z AUTO 29004KT 10SM CLR 01/M01 A3036 RMK AO2 SLP262 T00111006 $
KCYS 060853Z AUTO 31004KT 10SM CLR 01/M01 A3036 RMK AO2 SLP263 T00111006 50005 $
KCYS 060753Z AUTO 31003KT 10SM BKN039 03/01 A3037 RMK AO2 SLP257 T00280006 $
KCYS 060653Z AUTO 00000KT 10SM FEW037 04/02 A3036 RMK AO2 SLP260 T00390017 401330011 $
KCYS 060553Z AUTO 01005KT 10SM CLR 04/02 A3035 RMK AO2 SLP257 T00440017 10133 20044 51022 $
KCYS 060453Z AUTO 01008KT 10SM CLR 05/02 A3034 RMK AO2 SLP253 T00500017 $
KCYS 060353Z AUTO 00000KT 10SM BKN075 BKN090 08/01 A3033 RMK AO2 SLP238 T00830006 $
KCYS 060253Z 15003KT 10SM SCT085 OVC110 08/01 A3027 RMK AO2 SLP223 T00830006 53010 $
KCYS 060153Z 09004KT 10SM CLR 08/00 A3025 RMK AO2 PK WND 04032/0121 SLP219 T00830000 $